sensor_id;sensor_type;location;lat;lon;timestamp;pressure;altitude;pressure_sealevel;temperature;humidity
68654;BME280;55636;51.108;13.622;2023-08-31T00:01:01;99427.72;;;16.45;52.73
68654;BME280;55636;51.108;13.622;2023-08-31T00:02:06;99428.56;;;16.46;52.38
68654;BME280;55636;51.108;13.622;2023-08-31T00:03:09;99435.75;;;16.47;52.73
68654;BME280;55636;51.108;13.622;2023-08-31T00:04:15;99434.28;;;16.50;52.62
68654;BME280;55636;51.108;13.622;2023-08-31T00:05:18;99441.50;;;16.51;52.69
68654;BME280;55636;51.108;13.622;2023-08-31T00:06:20;99435.13;;;16.50;52.63
68654;BME280;55636;51.108;13.622;2023-08-31T00:07:24;99434.00;;;16.51;52.66
68654;BME280;55636;51.108;13.622;2023-08-31T00:08:26;99442.34;;;16.51;52.87
68654;BME280;55636;51.108;13.622;2023-08-31T00:09:29;99445.13;;;16.51;52.88
68654;BME280;55636;51.108;13.622;2023-08-31T00:10:35;99451.53;;;16.52;52.99
68654;BME280;55636;51.108;13.622;2023-08-31T00:11:37;99440.38;;;16.52;52.90
68654;BME280;55636;51.108;13.622;2023-08-31T00:12:40;99446.75;;;16.52;52.78
68654;BME280;55636;51.108;13.622;2023-08-31T00:13:42;99447.59;;;16.53;52.88
68654;BME280;55636;51.108;13.622;2023-08-31T00:14:45;99445.63;;;16.53;53.08
68654;BME280;55636;51.108;13.622;2023-08-31T00:15:47;99442.50;;;16.55;52.97
68654;BME280;55636;51.108;13.622;2023-08-31T00:16:50;99443.66;;;16.54;52.62
68654;BME280;55636;51.108;13.622;2023-08-31T00:17:52;99440.88;;;16.54;52.61
68654;BME280;55636;51.108;13.622;2023-08-31T00:18:56;99443.66;;;16.54;52.66
68654;BME280;55636;51.108;13.622;2023-08-31T00:19:59;99445.28;;;16.55;52.60
68654;BME280;55636;51.108;13.622;2023-08-31T00:21:02;99443.34;;;16.55;52.83
68654;BME280;55636;51.108;13.622;2023-08-31T00:22:04;99448.91;;;16.55;52.75
68654;BME280;55636;51.108;13.622;2023-08-31T00:23:07;99454.97;;;16.57;52.65
68654;BME280;55636;51.108;13.622;2023-08-31T00:24:10;99444.16;;;16.56;52.47
68654;BME280;55636;51.108;13.622;2023-08-31T00:25:13;99457.75;;;16.57;52.48
68654;BME280;55636;51.108;13.622;2023-08-31T00:26:15;99446.59;;;16.57;52.66
68654;BME280;55636;51.108;13.622;2023-08-31T00:27:21;99443.81;;;16.57;52.23
68654;BME280;55636;51.108;13.622;2023-08-31T00:28:23;99449.41;;;16.57;52.52
68654;BME280;55636;51.108;13.622;2023-08-31T00:29:27;99450.22;;;16.58;52.61
68654;BME280;55636;51.108;13.622;2023-08-31T00:30:32;99452.50;;;16.56;52.55
68654;BME280;55636;51.108;13.622;2023-08-31T00:31:35;99457.75;;;16.57;52.55
68654;BME280;55636;51.108;13.622;2023-08-31T00:32:37;99459.75;;;16.57;52.45
68654;BME280;55636;51.108;13.622;2023-08-31T00:33:41;99465.31;;;16.57;52.46
68654;BME280;55636;51.108;13.622;2023-08-31T00:34:44;99470.03;;;16.56;52.52
68654;BME280;55636;51.108;13.622;2023-08-31T00:35:46;99468.09;;;16.57;52.11
68654;BME280;55636;51.108;13.622;2023-08-31T00:36:49;99463.66;;;16.56;52.29
68654;BME280;55636;51.108;13.622;2023-08-31T00:37:51;99468.44;;;16.55;52.26
68654;BME280;55636;51.108;13.622;2023-08-31T00:38:54;99463.66;;;16.56;52.47
68654;BME280;55636;51.108;13.622;2023-08-31T00:39:56;99472.34;;;16.54;52.27
68654;BME280;55636;51.108;13.622;2023-08-31T00:41:00;99472.34;;;16.54;52.73
68654;BME280;55636;51.108;13.622;2023-08-31T00:42:04;99474.00;;;16.55;52.73
68654;BME280;55636;51.108;13.622;2023-08-31T00:43:07;99467.91;;;16.53;52.52
68654;BME280;55636;51.108;13.622;2023-08-31T00:44:10;99467.91;;;16.53;52.78
68654;BME280;55636;51.108;13.622;2023-08-31T00:45:13;99462.34;;;16.53;52.40
68654;BME280;55636;51.108;13.622;2023-08-31T00:46:16;99457.09;;;16.52;52.89
68654;BME280;55636;51.108;13.622;2023-08-31T00:47:20;99458.75;;;16.53;52.84
68654;BME280;55636;51.108;13.622;2023-08-31T00:48:24;99456.28;;;16.51;52.90
68654;BME280;55636;51.108;13.622;2023-08-31T00:49:27;99461.03;;;16.51;52.85
68654;BME280;55636;51.108;13.622;2023-08-31T00:50:29;99451.00;;;16.50;52.82
68654;BME280;55636;51.108;13.622;2023-08-31T00:51:32;99459.38;;;16.50;52.69
68654;BME280;55636;51.108;13.622;2023-08-31T00:52:35;99453.31;;;16.47;52.87
68654;BME280;55636;51.108;13.622;2023-08-31T00:53:37;99460.03;;;16.46;52.85
68654;BME280;55636;51.108;13.622;2023-08-31T00:54:40;99452.81;;;16.45;52.66
68654;BME280;55636;51.108;13.622;2023-08-31T00:55:45;99453.63;;;16.46;52.71
68654;BME280;55636;51.108;13.622;2023-08-31T00:56:52;99456.44;;;16.46;52.92
68654;BME280;55636;51.108;13.622;2023-08-31T00:57:54;99455.09;;;16.43;52.82
68654;BME280;55636;51.108;13.622;2023-08-31T00:58:57;99464.59;;;16.42;52.70
68654;BME280;55636;51.108;13.622;2023-08-31T01:00:00;99469.03;;;16.43;53.01
68654;BME280;55636;51.108;13.622;2023-08-31T01:02:19;99459.03;;;16.42;52.79
68654;BME280;55636;51.108;13.622;2023-08-31T01:05:13;99458.03;;;16.38;52.72
68654;BME280;55636;51.108;13.622;2023-08-31T01:08:17;99462.28;;;16.36;52.54
68654;BME280;55636;51.108;13.622;2023-08-31T01:09:39;99458.66;;;16.35;52.70
68654;BME280;55636;51.108;13.622;2023-08-31T01:10:54;99456.53;;;16.32;52.58
68654;BME280;55636;51.108;13.622;2023-08-31T01:12:12;99458.47;;;16.31;52.50
68654;BME280;55636;51.108;13.622;2023-08-31T01:13:24;99456.00;;;16.30;52.12
68654;BME280;55636;51.108;13.622;2023-08-31T01:14:32;99458.31;;;16.28;52.02
68654;BME280;55636;51.108;13.622;2023-08-31T01:15:38;99455.53;;;16.28;51.98
68654;BME280;55636;51.108;13.622;2023-08-31T01:16:43;99461.44;;;16.26;52.24
68654;BME280;55636;51.108;13.622;2023-08-31T01:17:50;99457.00;;;16.25;52.00
68654;BME280;55636;51.108;13.622;2023-08-31T01:18:54;99451.75;;;16.24;52.38
68654;BME280;55636;51.108;13.622;2023-08-31T01:20:00;99442.56;;;16.23;52.07
68654;BME280;55636;51.108;13.622;2023-08-31T01:21:27;99441.75;;;16.23;52.06
68654;BME280;55636;51.108;13.622;2023-08-31T01:22:39;99440.09;;;16.22;52.26
68654;BME280;55636;51.108;13.622;2023-08-31T01:23:55;99440.91;;;16.22;52.06
68654;BME280;55636;51.108;13.622;2023-08-31T01:24:59;99431.22;;;16.20;52.49
68654;BME280;55636;51.108;13.622;2023-08-31T01:26:06;99438.78;;;16.19;52.40
68654;BME280;55636;51.108;13.622;2023-08-31T01:27:09;99430.41;;;16.19;52.35
68654;BME280;55636;51.108;13.622;2023-08-31T01:28:13;99436.31;;;16.18;51.96
68654;BME280;55636;51.108;13.622;2023-08-31T01:29:16;99441.88;;;16.18;51.89
68654;BME280;55636;51.108;13.622;2023-08-31T01:30:19;99433.00;;;16.16;51.61
68654;BME280;55636;51.108;13.622;2023-08-31T01:31:21;99430.56;;;16.14;52.00
68654;BME280;55636;51.108;13.622;2023-08-31T01:32:24;99431.69;;;16.13;51.97
68654;BME280;55636;51.108;13.622;2023-08-31T01:33:26;99439.22;;;16.12;51.82
68654;BME280;55636;51.108;13.622;2023-08-31T01:34:28;99442.03;;;16.12;52.06
68654;BME280;55636;51.108;13.622;2023-08-31T01:35:38;99441.19;;;16.12;51.81
68654;BME280;55636;51.108;13.622;2023-08-31T01:36:47;99447.91;;;16.11;52.05
68654;BME280;55636;51.108;13.622;2023-08-31T01:38:01;99454.28;;;16.11;52.02
68654;BME280;55636;51.108;13.622;2023-08-31T01:39:15;99453.78;;;16.09;52.04
68654;BME280;55636;51.108;13.622;2023-08-31T01:40:24;99455.75;;;16.09;51.95
68654;BME280;55636;51.108;13.622;2023-08-31T01:41:31;99457.72;;;16.08;51.96
68654;BME280;55636;51.108;13.622;2023-08-31T01:42:37;99458.06;;;16.07;51.95
68654;BME280;55636;51.108;13.622;2023-08-31T01:43:40;99469.19;;;16.07;52.15
68654;BME280;55636;51.108;13.622;2023-08-31T01:44:45;99456.88;;;16.08;52.40
68654;BME280;55636;51.108;13.622;2023-08-31T01:45:50;99454.44;;;16.06;52.11
68654;BME280;55636;51.108;13.622;2023-08-31T01:46:53;99457.22;;;16.06;52.51
68654;BME280;55636;51.108;13.622;2023-08-31T01:47:58;99457.22;;;16.06;52.42
68654;BME280;55636;51.108;13.622;2023-08-31T01:49:04;99454.44;;;16.06;52.54
68654;BME280;55636;51.108;13.622;2023-08-31T01:50:08;99461.97;;;16.06;52.25
68654;BME280;55636;51.108;13.622;2023-08-31T01:51:10;99460.84;;;16.07;52.41
68654;BME280;55636;51.108;13.622;2023-08-31T01:52:14;99453.63;;;16.06;52.54
68654;BME280;55636;51.108;13.622;2023-08-31T01:53:17;99454.44;;;16.06;52.42
68654;BME280;55636;51.108;13.622;2023-08-31T01:54:20;99458.88;;;16.07;52.36
68654;BME280;55636;51.108;13.622;2023-08-31T01:55:23;99457.22;;;16.06;52.28
68654;BME280;55636;51.108;13.622;2023-08-31T01:56:26;99459.19;;;16.06;52.52
68654;BME280;55636;51.108;13.622;2023-08-31T01:57:28;99458.34;;;16.05;52.29
68654;BME280;55636;51.108;13.622;2023-08-31T01:58:41;99455.56;;;16.05;52.38
68654;BME280;55636;51.108;13.622;2023-08-31T01:59:44;99457.53;;;16.05;52.41
68654;BME280;55636;51.108;13.622;2023-08-31T02:00:46;99458.34;;;16.05;52.55
68654;BME280;55636;51.108;13.622;2023-08-31T02:01:49;99465.56;;;16.06;52.30
68654;BME280;55636;51.108;13.622;2023-08-31T02:02:52;99463.91;;;16.05;52.12
68654;BME280;55636;51.108;13.622;2023-08-31T02:03:55;99470.66;;;16.04;52.39
68654;BME280;55636;51.108;13.622;2023-08-31T02:04:57;99479.00;;;16.04;52.10
68654;BME280;55636;51.108;13.622;2023-08-31T02:06:03;99469.81;;;16.04;52.45
68654;BME280;55636;51.108;13.622;2023-08-31T02:07:06;99478.50;;;16.02;52.21
68654;BME280;55636;51.108;13.622;2023-08-31T02:08:08;99473.75;;;16.03;52.08
68654;BME280;55636;51.108;13.622;2023-08-31T02:09:13;99481.28;;;16.02;52.17
68654;BME280;55636;51.108;13.622;2023-08-31T02:10:15;99482.41;;;16.01;52.29
68654;BME280;55636;51.108;13.622;2023-08-31T02:11:18;99486.03;;;16.02;52.49
68654;BME280;55636;51.108;13.622;2023-08-31T02:12:20;99484.06;;;16.02;52.64
68654;BME280;55636;51.108;13.622;2023-08-31T02:13:23;99488.84;;;16.02;52.56
68654;BME280;55636;51.108;13.622;2023-08-31T02:14:26;99489.66;;;16.02;52.51
68654;BME280;55636;51.108;13.622;2023-08-31T02:15:28;99485.19;;;16.01;52.92
68654;BME280;55636;51.108;13.622;2023-08-31T02:16:34;99493.56;;;16.01;52.72
68654;BME280;55636;51.108;13.622;2023-08-31T02:17:37;99497.47;;;16.00;52.92
68654;BME280;55636;51.108;13.622;2023-08-31T02:18:39;99499.97;;;16.02;52.83
68654;BME280;55636;51.108;13.622;2023-08-31T02:19:42;99495.22;;;16.02;53.05
68654;BME280;55636;51.108;13.622;2023-08-31T02:20:44;99491.63;;;16.02;52.95
68654;BME280;55636;51.108;13.622;2023-08-31T02:21:48;99495.22;;;16.02;52.82
68654;BME280;55636;51.108;13.622;2023-08-31T02:22:50;99503.56;;;16.02;52.73
68654;BME280;55636;51.108;13.622;2023-08-31T02:23:53;99503.88;;;16.01;52.85
68654;BME280;55636;51.108;13.622;2023-08-31T02:24:55;99503.56;;;16.02;52.86
68654;BME280;55636;51.108;13.622;2023-08-31T02:25:57;99498.31;;;16.01;52.86
68654;BME280;55636;51.108;13.622;2023-08-31T02:27:00;99501.09;;;16.01;52.69
68654;BME280;55636;51.108;13.622;2023-08-31T02:28:03;99506.69;;;16.01;52.87
68654;BME280;55636;51.108;13.622;2023-08-31T02:29:05;99503.88;;;16.01;52.70
68654;BME280;55636;51.108;13.622;2023-08-31T02:30:08;99504.69;;;16.01;52.69
68654;BME280;55636;51.108;13.622;2023-08-31T02:31:11;99512.25;;;16.01;52.70
68654;BME280;55636;51.108;13.622;2023-08-31T02:32:14;99514.19;;;16.00;52.99
68654;BME280;55636;51.108;13.622;2023-08-31T02:33:16;99517.28;;;15.98;52.82
68654;BME280;55636;51.108;13.622;2023-08-31T02:34:21;99499.78;;;15.98;53.00
68654;BME280;55636;51.108;13.622;2023-08-31T02:35:23;99508.94;;;15.98;52.66
68654;BME280;55636;51.108;13.622;2023-08-31T02:36:26;99520.09;;;15.98;53.02
68654;BME280;55636;51.108;13.622;2023-08-31T02:37:28;99505.34;;;15.98;52.89
68654;BME280;55636;51.108;13.622;2023-08-31T02:38:30;99513.69;;;15.98;52.90
68654;BME280;55636;51.108;13.622;2023-08-31T02:39:33;99515.66;;;15.97;52.71
68654;BME280;55636;51.108;13.622;2023-08-31T02:40:36;99507.63;;;15.96;52.50
68654;BME280;55636;51.108;13.622;2023-08-31T02:41:42;99512.06;;;15.97;52.44
68654;BME280;55636;51.108;13.622;2023-08-31T02:42:44;99515.97;;;15.96;52.47
68654;BME280;55636;51.108;13.622;2023-08-31T02:43:52;99512.38;;;15.95;52.39
68654;BME280;55636;51.108;13.622;2023-08-31T02:44:55;99522.38;;;15.96;52.50
68654;BME280;55636;51.108;13.622;2023-08-31T02:46:01;99528.25;;;15.95;52.22
68654;BME280;55636;51.108;13.622;2023-08-31T02:47:04;99524.97;;;15.93;52.55
68654;BME280;55636;51.108;13.622;2023-08-31T02:48:07;99525.78;;;15.93;52.46
68654;BME280;55636;51.108;13.622;2023-08-31T02:49:10;99527.75;;;15.93;52.55
68654;BME280;55636;51.108;13.622;2023-08-31T02:50:12;99531.69;;;15.92;52.02
68654;BME280;55636;51.108;13.622;2023-08-31T02:51:14;99539.22;;;15.91;52.25
68654;BME280;55636;51.108;13.622;2023-08-31T02:52:17;99537.88;;;15.89;52.00
68654;BME280;55636;51.108;13.622;2023-08-31T02:53:19;99533.44;;;15.88;52.29
68654;BME280;55636;51.108;13.622;2023-08-31T02:54:22;99538.19;;;15.87;51.99
68654;BME280;55636;51.108;13.622;2023-08-31T02:55:24;99535.72;;;15.86;52.12
68654;BME280;55636;51.108;13.622;2023-08-31T02:56:26;99541.28;;;15.86;52.18
68654;BME280;55636;51.108;13.622;2023-08-31T02:57:29;99534.38;;;15.83;52.18
68654;BME280;55636;51.108;13.622;2023-08-31T02:58:33;99530.47;;;15.84;52.53
68654;BME280;55636;51.108;13.622;2023-08-31T02:59:35;99525.22;;;15.83;52.13
68654;BME280;55636;51.108;13.622;2023-08-31T03:00:38;99523.56;;;15.81;52.51
68654;BME280;55636;51.108;13.622;2023-08-31T03:01:45;99526.69;;;15.80;52.42
68654;BME280;55636;51.108;13.622;2023-08-31T03:02:49;99531.44;;;15.79;52.18
68654;BME280;55636;51.108;13.622;2023-08-31T03:03:54;99534.50;;;15.78;52.47
68654;BME280;55636;51.108;13.622;2023-08-31T03:04:57;99542.06;;;15.77;52.24
68654;BME280;55636;51.108;13.622;2023-08-31T03:06:00;99537.63;;;15.76;52.17
68654;BME280;55636;51.108;13.622;2023-08-31T03:07:03;99529.25;;;15.76;52.52
68654;BME280;55636;51.108;13.622;2023-08-31T03:08:07;99532.38;;;15.75;52.63
68654;BME280;55636;51.108;13.622;2023-08-31T03:09:10;99533.50;;;15.74;52.33
68654;BME280;55636;51.108;13.622;2023-08-31T03:10:12;99531.84;;;15.73;52.58
68654;BME280;55636;51.108;13.622;2023-08-31T03:11:15;99538.59;;;15.72;52.37
68654;BME280;55636;51.108;13.622;2023-08-31T03:12:18;99536.09;;;15.70;52.66
68654;BME280;55636;51.108;13.622;2023-08-31T03:13:20;99537.50;;;15.68;52.47
68654;BME280;55636;51.108;13.622;2023-08-31T03:14:23;99535.88;;;15.67;52.74
68654;BME280;55636;51.108;13.622;2023-08-31T03:15:25;99538.16;;;15.64;52.55
68654;BME280;55636;51.108;13.622;2023-08-31T03:16:27;99532.59;;;15.64;52.59
68654;BME280;55636;51.108;13.622;2023-08-31T03:17:31;99525.69;;;15.62;52.77
68654;BME280;55636;51.108;13.622;2023-08-31T03:18:33;99534.34;;;15.60;52.98
68654;BME280;55636;51.108;13.622;2023-08-31T03:19:36;99530.75;;;15.60;52.55
68654;BME280;55636;51.108;13.622;2023-08-31T03:20:39;99530.25;;;15.58;52.80
68654;BME280;55636;51.108;13.622;2023-08-31T03:21:41;99530.56;;;15.56;52.76
68654;BME280;55636;51.108;13.622;2023-08-31T03:22:43;99529.72;;;15.56;52.65
68654;BME280;55636;51.108;13.622;2023-08-31T03:23:46;99529.22;;;15.54;52.96
68654;BME280;55636;51.108;13.622;2023-08-31T03:24:48;99532.00;;;15.54;53.13
68654;BME280;55636;51.108;13.622;2023-08-31T03:25:51;99528.69;;;15.52;52.88
68654;BME280;55636;51.108;13.622;2023-08-31T03:26:53;99530.69;;;15.51;53.29
68654;BME280;55636;51.108;13.622;2023-08-31T03:27:56;99531.81;;;15.50;53.27
68654;BME280;55636;51.108;13.622;2023-08-31T03:28:58;99534.91;;;15.48;53.10
68654;BME280;55636;51.108;13.622;2023-08-31T03:30:02;99533.25;;;15.47;53.30
68654;BME280;55636;51.108;13.622;2023-08-31T03:31:05;99534.38;;;15.46;53.20
68654;BME280;55636;51.108;13.622;2023-08-31T03:32:08;99533.56;;;15.46;53.37
68654;BME280;55636;51.108;13.622;2023-08-31T03:33:11;99539.94;;;15.46;53.39
68654;BME280;55636;51.108;13.622;2023-08-31T03:34:15;99530.28;;;15.44;53.32
68654;BME280;55636;51.108;13.622;2023-08-31T03:35:17;99545.03;;;15.44;53.63
68654;BME280;55636;51.108;13.622;2023-08-31T03:36:20;99538.94;;;15.42;53.43
68654;BME280;55636;51.108;13.622;2023-08-31T03:37:22;99543.69;;;15.42;53.68
68654;BME280;55636;51.108;13.622;2023-08-31T03:38:25;99552.31;;;15.40;53.74
68654;BME280;55636;51.108;13.622;2023-08-31T03:39:27;99552.66;;;15.39;53.55
68654;BME280;55636;51.108;13.622;2023-08-31T03:40:30;99551.53;;;15.40;53.84
68654;BME280;55636;51.108;13.622;2023-08-31T03:41:33;99561.00;;;15.39;53.59
68654;BME280;55636;51.108;13.622;2023-08-31T03:42:37;99566.56;;;15.39;53.91
68654;BME280;55636;51.108;13.622;2023-08-31T03:43:40;99570.50;;;15.38;53.81
68654;BME280;55636;51.108;13.622;2023-08-31T03:44:42;99562.44;;;15.36;53.78
68654;BME280;55636;51.108;13.622;2023-08-31T03:45:45;99564.41;;;15.36;53.86
68654;BME280;55636;51.108;13.622;2023-08-31T03:46:47;99560.81;;;15.35;54.08
68654;BME280;55636;51.108;13.622;2023-08-31T03:47:50;99571.94;;;15.35;53.89
68654;BME280;55636;51.108;13.622;2023-08-31T03:48:52;99573.88;;;15.35;54.05
68654;BME280;55636;51.108;13.622;2023-08-31T03:49:54;99571.94;;;15.35;53.95
68654;BME280;55636;51.108;13.622;2023-08-31T03:50:57;99564.72;;;15.34;53.81
68654;BME280;55636;51.108;13.622;2023-08-31T03:51:59;99571.09;;;15.35;54.06
68654;BME280;55636;51.108;13.622;2023-08-31T03:53:02;99561.41;;;15.32;54.00
68654;BME280;55636;51.108;13.622;2023-08-31T03:54:05;99571.75;;;15.31;53.97
68654;BME280;55636;51.108;13.622;2023-08-31T03:55:08;99565.34;;;15.31;53.61
68654;BME280;55636;51.108;13.622;2023-08-31T03:56:10;99570.09;;;15.30;54.06
68654;BME280;55636;51.108;13.622;2023-08-31T03:57:14;99574.00;;;15.29;53.72
68654;BME280;55636;51.108;13.622;2023-08-31T03:58:16;99570.41;;;15.29;53.84
68654;BME280;55636;51.108;13.622;2023-08-31T03:59:22;99564.00;;;15.28;53.89
68654;BME280;55636;51.108;13.622;2023-08-31T04:00:24;99564.31;;;15.27;54.03
68654;BME280;55636;51.108;13.622;2023-08-31T04:01:27;99559.88;;;15.26;54.07
68654;BME280;55636;51.108;13.622;2023-08-31T04:02:30;99568.22;;;15.26;53.90
68654;BME280;55636;51.108;13.622;2023-08-31T04:03:33;99566.59;;;15.25;54.00
68654;BME280;55636;51.108;13.622;2023-08-31T04:04:35;99563.28;;;15.23;53.83
68654;BME280;55636;51.108;13.622;2023-08-31T04:05:38;99558.88;;;15.22;53.94
68654;BME280;55636;51.108;13.622;2023-08-31T04:06:40;99558.06;;;15.21;54.10
68654;BME280;55636;51.108;13.622;2023-08-31T04:07:43;99551.66;;;15.21;53.80
68654;BME280;55636;51.108;13.622;2023-08-31T04:08:45;99559.19;;;15.20;54.07
68654;BME280;55636;51.108;13.622;2023-08-31T04:09:47;99558.38;;;15.20;54.11
68654;BME280;55636;51.108;13.622;2023-08-31T04:10:50;99558.38;;;15.20;53.84
68654;BME280;55636;51.108;13.622;2023-08-31T04:11:52;99553.94;;;15.19;54.33
68654;BME280;55636;51.108;13.622;2023-08-31T04:12:55;99549.50;;;15.18;54.10
68654;BME280;55636;51.108;13.622;2023-08-31T04:13:57;99555.88;;;15.18;54.23
68654;BME280;55636;51.108;13.622;2023-08-31T04:15:00;99559.81;;;15.17;54.10
68654;BME280;55636;51.108;13.622;2023-08-31T04:16:05;99558.16;;;15.16;53.93
68654;BME280;55636;51.108;13.622;2023-08-31T04:17:07;99557.34;;;15.15;54.37
68654;BME280;55636;51.108;13.622;2023-08-31T04:18:10;99564.03;;;15.14;54.12
68654;BME280;55636;51.108;13.622;2023-08-31T04:19:13;99562.06;;;15.15;54.42
68654;BME280;55636;51.108;13.622;2023-08-31T04:20:15;99565.97;;;15.14;54.20
68654;BME280;55636;51.108;13.622;2023-08-31T04:21:18;99574.31;;;15.14;53.91
68654;BME280;55636;51.108;13.622;2023-08-31T04:22:23;99571.53;;;15.14;54.16
68654;BME280;55636;51.108;13.622;2023-08-31T04:23:25;99576.28;;;15.13;53.90
68654;BME280;55636;51.108;13.622;2023-08-31T04:24:27;99575.47;;;15.13;54.42
68654;BME280;55636;51.108;13.622;2023-08-31T04:25:30;99569.06;;;15.12;54.20
68654;BME280;55636;51.108;13.622;2023-08-31T04:26:35;99569.41;;;15.11;54.34
68654;BME280;55636;51.108;13.622;2023-08-31T04:27:38;99581.66;;;15.10;54.24
68654;BME280;55636;51.108;13.622;2023-08-31T04:28:42;99580.84;;;15.09;54.53
68654;BME280;55636;51.108;13.622;2023-08-31T04:29:44;99575.28;;;15.09;54.14
68654;BME280;55636;51.108;13.622;2023-08-31T04:30:47;99581.97;;;15.08;54.24
68654;BME280;55636;51.108;13.622;2023-08-31T04:31:49;99583.94;;;15.08;54.11
68654;BME280;55636;51.108;13.622;2023-08-31T04:32:51;99576.72;;;15.07;54.33
68654;BME280;55636;51.108;13.622;2023-08-31T04:33:54;99581.44;;;15.06;54.49
68654;BME280;55636;51.108;13.622;2023-08-31T04:34:56;99582.59;;;15.05;54.55
68654;BME280;55636;51.108;13.622;2023-08-31T04:35:59;99585.38;;;15.05;54.63
68654;BME280;55636;51.108;13.622;2023-08-31T04:37:01;99578.97;;;15.05;54.52
68654;BME280;55636;51.108;13.622;2023-08-31T04:38:04;99585.38;;;15.05;54.38
68654;BME280;55636;51.108;13.622;2023-08-31T04:39:06;99581.75;;;15.05;54.63
68654;BME280;55636;51.108;13.622;2023-08-31T04:40:10;99589.28;;;15.04;54.61
68654;BME280;55636;51.108;13.622;2023-08-31T04:41:15;99585.66;;;15.04;54.86
68654;BME280;55636;51.108;13.622;2023-08-31T04:42:17;99582.88;;;15.04;54.80
68654;BME280;55636;51.108;13.622;2023-08-31T04:43:20;99587.63;;;15.03;54.90
68654;BME280;55636;51.108;13.622;2023-08-31T04:44:22;99595.16;;;15.03;54.87
68654;BME280;55636;51.108;13.622;2023-08-31T04:45:25;99595.16;;;15.03;54.76
68654;BME280;55636;51.108;13.622;2023-08-31T04:46:27;99591.53;;;15.02;54.74
68654;BME280;55636;51.108;13.622;2023-08-31T04:47:30;99599.88;;;15.02;54.72
68654;BME280;55636;51.108;13.622;2023-08-31T04:48:32;99597.94;;;15.03;54.74
68654;BME280;55636;51.108;13.622;2023-08-31T04:49:35;99599.88;;;15.02;54.93
68654;BME280;55636;51.108;13.622;2023-08-31T04:50:37;99599.06;;;15.02;54.85
68654;BME280;55636;51.108;13.622;2023-08-31T04:51:40;99605.44;;;15.02;55.02
68654;BME280;55636;51.108;13.622;2023-08-31T04:52:43;99602.66;;;15.02;55.04
68654;BME280;55636;51.108;13.622;2023-08-31T04:53:46;99611.84;;;15.03;54.76
68654;BME280;55636;51.108;13.622;2023-08-31T04:54:48;99609.88;;;15.03;54.73
68654;BME280;55636;51.108;13.622;2023-08-31T04:55:51;99609.06;;;15.03;54.97
68654;BME280;55636;51.108;13.622;2023-08-31T04:56:53;99601.53;;;15.03;55.22
68654;BME280;55636;51.108;13.622;2023-08-31T04:57:56;99617.41;;;15.03;54.93
68654;BME280;55636;51.108;13.622;2023-08-31T04:59:00;99616.56;;;15.02;54.93
68654;BME280;55636;51.108;13.622;2023-08-31T05:00:03;99615.75;;;15.02;54.80
68654;BME280;55636;51.108;13.622;2023-08-31T05:01:07;99617.69;;;15.01;55.19
68654;BME280;55636;51.108;13.622;2023-08-31T05:02:09;99615.75;;;15.02;54.86
68654;BME280;55636;51.108;13.622;2023-08-31T05:03:11;99626.88;;;15.02;55.04
68654;BME280;55636;51.108;13.622;2023-08-31T05:04:14;99619.66;;;15.01;55.07
68654;BME280;55636;51.108;13.622;2023-08-31T05:05:17;99616.88;;;15.01;55.10
68654;BME280;55636;51.108;13.622;2023-08-31T05:06:20;99627.19;;;15.00;55.05
68654;BME280;55636;51.108;13.622;2023-08-31T05:07:23;99626.03;;;15.01;55.36
68654;BME280;55636;51.108;13.622;2023-08-31T05:08:25;99630.78;;;15.01;55.38
68654;BME280;55636;51.108;13.622;2023-08-31T05:09:28;99632.44;;;15.02;55.25
68654;BME280;55636;51.108;13.622;2023-08-31T05:10:34;99641.59;;;15.02;55.31
68654;BME280;55636;51.108;13.622;2023-08-31T05:11:36;99636.88;;;15.03;55.49
68654;BME280;55636;51.108;13.622;2023-08-31T05:12:39;99639.66;;;15.03;55.30
68654;BME280;55636;51.108;13.622;2023-08-31T05:13:41;99645.22;;;15.03;55.64
68654;BME280;55636;51.108;13.622;2023-08-31T05:14:47;99654.06;;;15.05;55.37
68654;BME280;55636;51.108;13.622;2023-08-31T05:15:49;99646.03;;;15.03;55.64
68654;BME280;55636;51.108;13.622;2023-08-31T05:16:52;99649.63;;;15.04;55.37
68654;BME280;55636;51.108;13.622;2023-08-31T05:17:54;99654.06;;;15.05;55.75
68654;BME280;55636;51.108;13.622;2023-08-31T05:18:56;99652.41;;;15.04;55.73
68654;BME280;55636;51.108;13.622;2023-08-31T05:19:59;99647.38;;;15.06;55.63
68654;BME280;55636;51.108;13.622;2023-08-31T05:21:02;99662.09;;;15.06;55.65
68654;BME280;55636;51.108;13.622;2023-08-31T05:22:05;99656.53;;;15.06;55.58
68654;BME280;55636;51.108;13.622;2023-08-31T05:23:08;99657.38;;;15.07;55.95
68654;BME280;55636;51.108;13.622;2023-08-31T05:24:11;99661.81;;;15.08;55.50
68654;BME280;55636;51.108;13.622;2023-08-31T05:25:13;99663.75;;;15.07;55.70
68654;BME280;55636;51.108;13.622;2023-08-31T05:26:16;99665.41;;;15.08;55.76
68654;BME280;55636;51.108;13.622;2023-08-31T05:27:18;99667.06;;;15.09;55.64
68654;BME280;55636;51.108;13.622;2023-08-31T05:28:21;99668.72;;;15.10;55.89
68654;BME280;55636;51.108;13.622;2023-08-31T05:29:23;99659.53;;;15.10;56.00
68654;BME280;55636;51.108;13.622;2023-08-31T05:30:26;99668.41;;;15.12;55.91
68654;BME280;55636;51.108;13.622;2023-08-31T05:31:28;99666.44;;;15.12;55.50
68654;BME280;55636;51.108;13.622;2023-08-31T05:32:30;99670.88;;;15.13;55.54
68654;BME280;55636;51.108;13.622;2023-08-31T05:33:33;99664.16;;;15.14;55.84
68654;BME280;55636;51.108;13.622;2023-08-31T05:34:36;99667.28;;;15.13;55.64
68654;BME280;55636;51.108;13.622;2023-08-31T05:35:39;99674.97;;;15.16;55.87
68654;BME280;55636;51.108;13.622;2023-08-31T05:36:42;99666.63;;;15.16;55.83
68654;BME280;55636;51.108;13.622;2023-08-31T05:37:44;99673.84;;;15.17;55.87